sensor_id;sensor_type;location;lat;lon;timestamp;pressure;altitude;pressure_sealevel;temperature
69435;BMP180;56625;54.322;18.582;2022-12-18T00:02:23;102252.80;;;-3.90
69435;BMP180;56625;54.322;18.582;2022-12-18T00:04:51;102255.40;;;-3.90
69435;BMP180;56625;54.322;18.582;2022-12-18T00:07:19;102253.20;;;-3.98
69435;BMP180;56625;54.322;18.582;2022-12-18T00:09:47;102259.80;;;-4.00
69435;BMP180;56625;54.322;18.582;2022-12-18T00:12:15;102269.00;;;-4.10
69435;BMP180;56625;54.322;18.582;2022-12-18T00:14:43;102267.20;;;-4.10
69435;BMP180;56625;54.322;18.582;2022-12-18T00:17:11;102270.20;;;-4.12
69435;BMP180;56625;54.322;18.582;2022-12-18T00:19:39;102272.80;;;-4.20
69435;BMP180;56625;54.322;18.582;2022-12-18T00:22:06;102272.20;;;-4.22
69435;BMP180;56625;54.322;18.582;2022-12-18T00:24:34;102270.80;;;-4.30
69435;BMP180;56625;54.322;18.582;2022-12-18T00:27:02;102270.40;;;-4.40
69435;BMP180;56625;54.322;18.582;2022-12-18T00:29:30;102271.80;;;-4.46
69435;BMP180;56625;54.322;18.582;2022-12-18T00:31:58;102275.00;;;-4.50
69435;BMP180;56625;54.322;18.582;2022-12-18T00:34:26;102279.80;;;-4.58
69435;BMP180;56625;54.322;18.582;2022-12-18T00:36:54;102285.20;;;-4.60
69435;BMP180;56625;54.322;18.582;2022-12-18T00:39:22;102287.20;;;-4.60
69435;BMP180;56625;54.322;18.582;2022-12-18T00:41:50;102284.40;;;-4.70
69435;BMP180;56625;54.322;18.582;2022-12-18T00:44:56;102290.20;;;-4.70
69435;BMP180;56625;54.322;18.582;2022-12-18T00:47:24;102287.40;;;-4.78
69435;BMP180;56625;54.322;18.582;2022-12-18T00:49:52;102289.80;;;-4.76
69435;BMP180;56625;54.322;18.582;2022-12-18T00:52:20;102292.20;;;-4.74
69435;BMP180;56625;54.322;18.582;2022-12-18T00:54:48;102293.80;;;-4.70
69435;BMP180;56625;54.322;18.582;2022-12-18T00:57:15;102297.80;;;-4.70
69435;BMP180;56625;54.322;18.582;2022-12-18T00:59:43;102299.00;;;-4.70
69435;BMP180;56625;54.322;18.582;2022-12-18T01:02:14;102300.20;;;-4.70
69435;BMP180;56625;54.322;18.582;2022-12-18T01:04:42;102300.40;;;-4.70
69435;BMP180;56625;54.322;18.582;2022-12-18T01:07:10;102292.80;;;-4.70
69435;BMP180;56625;54.322;18.582;2022-12-18T01:09:38;102299.00;;;-4.60
69435;BMP180;56625;54.322;18.582;2022-12-18T01:12:06;102301.20;;;-4.60
69435;BMP180;56625;54.322;18.582;2022-12-18T01:14:34;102303.80;;;-4.60
69435;BMP180;56625;54.322;18.582;2022-12-18T01:17:02;102308.00;;;-4.60
69435;BMP180;56625;54.322;18.582;2022-12-18T01:19:31;102307.40;;;-4.54
69435;BMP180;56625;54.322;18.582;2022-12-18T01:21:59;102313.20;;;-4.50
69435;BMP180;56625;54.322;18.582;2022-12-18T01:24:27;102311.20;;;-4.48
69435;BMP180;56625;54.322;18.582;2022-12-18T01:26:55;102315.00;;;-4.40
69435;BMP180;56625;54.322;18.582;2022-12-18T01:29:24;102318.20;;;-4.30
69435;BMP180;56625;54.322;18.582;2022-12-18T01:31:55;102320.20;;;-4.30
69435;BMP180;56625;54.322;18.582;2022-12-18T01:34:24;102320.20;;;-4.20
69435;BMP180;56625;54.322;18.582;2022-12-18T01:36:52;102315.60;;;-4.20
69435;BMP180;56625;54.322;18.582;2022-12-18T01:39:20;102314.80;;;-4.12
69435;BMP180;56625;54.322;18.582;2022-12-18T01:41:48;102320.60;;;-4.10
69435;BMP180;56625;54.322;18.582;2022-12-18T01:55:32;102313.60;;;-3.70
69435;BMP180;56625;54.322;18.582;2022-12-18T01:58:04;102313.60;;;-3.62
69435;BMP180;56625;54.322;18.582;2022-12-18T02:00:34;102313.40;;;-3.60
69435;BMP180;56625;54.322;18.582;2022-12-18T02:03:02;102316.80;;;-3.50
69435;BMP180;56625;54.322;18.582;2022-12-18T02:08:33;102316.80;;;-3.30
69435;BMP180;56625;54.322;18.582;2022-12-18T02:11:37;102319.20;;;-3.20
69435;BMP180;56625;54.322;18.582;2022-12-18T02:17:31;102325.20;;;-3.00
69435;BMP180;56625;54.322;18.582;2022-12-18T02:20:14;102321.40;;;-2.92
69435;BMP180;56625;54.322;18.582;2022-12-18T02:23:01;102317.80;;;-2.90
69435;BMP180;56625;54.322;18.582;2022-12-18T02:26:02;102326.40;;;-2.90
69435;BMP180;56625;54.322;18.582;2022-12-18T02:28:40;102320.80;;;-2.90
69435;BMP180;56625;54.322;18.582;2022-12-18T02:31:14;102324.40;;;-2.80
69435;BMP180;56625;54.322;18.582;2022-12-18T02:33:45;102323.20;;;-2.80
69435;BMP180;56625;54.322;18.582;2022-12-18T02:36:16;102326.20;;;-2.80
69435;BMP180;56625;54.322;18.582;2022-12-18T02:38:46;102330.80;;;-2.80
69435;BMP180;56625;54.322;18.582;2022-12-18T02:41:16;102328.40;;;-2.80
69435;BMP180;56625;54.322;18.582;2022-12-18T02:44:01;102330.00;;;-2.80
69435;BMP180;56625;54.322;18.582;2022-12-18T02:46:37;102336.80;;;-2.80
69435;BMP180;56625;54.322;18.582;2022-12-18T02:49:35;102339.20;;;-2.80
69435;BMP180;56625;54.322;18.582;2022-12-18T02:58:03;102335.80;;;-2.80
69435;BMP180;56625;54.322;18.582;2022-12-18T03:01:07;102340.40;;;-2.80
69435;BMP180;56625;54.322;18.582;2022-12-18T03:03:59;102340.60;;;-2.74
69435;BMP180;56625;54.322;18.582;2022-12-18T03:06:48;102344.00;;;-2.80
69435;BMP180;56625;54.322;18.582;2022-12-18T03:09:50;102341.00;;;-2.76
69435;BMP180;56625;54.322;18.582;2022-12-18T03:12:40;102344.60;;;-2.78
69435;BMP180;56625;54.322;18.582;2022-12-18T03:15:28;102348.20;;;-2.80
69435;BMP180;56625;54.322;18.582;2022-12-18T03:18:19;102346.00;;;-2.80
69435;BMP180;56625;54.322;18.582;2022-12-18T03:20:51;102351.60;;;-2.80
69435;BMP180;56625;54.322;18.582;2022-12-18T03:23:24;102351.60;;;-2.80
69435;BMP180;56625;54.322;18.582;2022-12-18T03:25:58;102353.40;;;-2.80
69435;BMP180;56625;54.322;18.582;2022-12-18T03:28:42;102357.00;;;-2.80
69435;BMP180;56625;54.322;18.582;2022-12-18T03:31:13;102360.40;;;-2.80
69435;BMP180;56625;54.322;18.582;2022-12-18T03:33:57;102361.80;;;-2.88
69435;BMP180;56625;54.322;18.582;2022-12-18T03:36:26;102367.20;;;-2.84
69435;BMP180;56625;54.322;18.582;2022-12-18T03:38:54;102369.80;;;-2.90
69435;BMP180;56625;54.322;18.582;2022-12-18T03:41:58;102373.40;;;-2.88
69435;BMP180;56625;54.322;18.582;2022-12-18T03:44:40;102377.60;;;-2.80
69435;BMP180;56625;54.322;18.582;2022-12-18T03:47:29;102382.20;;;-2.80
69435;BMP180;56625;54.322;18.582;2022-12-18T03:50:21;102380.80;;;-2.90
69435;BMP180;56625;54.322;18.582;2022-12-18T03:55:21;102387.60;;;-2.90
69435;BMP180;56625;54.322;18.582;2022-12-18T03:57:52;102392.60;;;-2.90
69435;BMP180;56625;54.322;18.582;2022-12-18T04:00:20;102390.40;;;-2.90
69435;BMP180;56625;54.322;18.582;2022-12-18T04:02:54;102391.80;;;-2.90
69435;BMP180;56625;54.322;18.582;2022-12-18T04:05:25;102396.40;;;-3.00
69435;BMP180;56625;54.322;18.582;2022-12-18T04:07:55;102401.00;;;-3.00
69435;BMP180;56625;54.322;18.582;2022-12-18T04:10:23;102408.00;;;-3.00
69435;BMP180;56625;54.322;18.582;2022-12-18T04:12:56;102416.80;;;-3.00
69435;BMP180;56625;54.322;18.582;2022-12-18T04:15:24;102404.60;;;-3.00
69435;BMP180;56625;54.322;18.582;2022-12-18T04:17:52;102407.60;;;-3.02
69435;BMP180;56625;54.322;18.582;2022-12-18T04:20:20;102407.80;;;-3.10
69435;BMP180;56625;54.322;18.582;2022-12-18T04:22:48;102410.60;;;-3.10
69435;BMP180;56625;54.322;18.582;2022-12-18T04:25:16;102411.60;;;-3.10
69435;BMP180;56625;54.322;18.582;2022-12-18T04:27:44;102407.20;;;-3.14
69435;BMP180;56625;54.322;18.582;2022-12-18T04:30:12;102410.00;;;-3.20
69435;BMP180;56625;54.322;18.582;2022-12-18T04:32:40;102416.60;;;-3.20
69435;BMP180;56625;54.322;18.582;2022-12-18T04:35:08;102414.20;;;-3.20
69435;BMP180;56625;54.322;18.582;2022-12-18T04:37:38;102418.60;;;-3.20
69435;BMP180;56625;54.322;18.582;2022-12-18T04:40:06;102412.60;;;-3.28
69435;BMP180;56625;54.322;18.582;2022-12-18T04:42:34;102417.20;;;-3.30
69435;BMP180;56625;54.322;18.582;2022-12-18T04:45:03;102421.60;;;-3.30
69435;BMP180;56625;54.322;18.582;2022-12-18T04:47:31;102431.00;;;-3.30
69435;BMP180;56625;54.322;18.582;2022-12-18T04:49:58;102438.40;;;-3.30
69435;BMP180;56625;54.322;18.582;2022-12-18T04:52:26;102433.00;;;-3.30
69435;BMP180;56625;54.322;18.582;2022-12-18T04:54:54;102436.00;;;-3.30
69435;BMP180;56625;54.322;18.582;2022-12-18T04:57:22;102438.00;;;-3.30
69435;BMP180;56625;54.322;18.582;2022-12-18T04:59:50;102437.20;;;-3.30
69435;BMP180;56625;54.322;18.582;2022-12-18T05:02:18;102435.00;;;-3.30
69435;BMP180;56625;54.322;18.582;2022-12-18T05:04:46;102440.80;;;-3.30
69435;BMP180;56625;54.322;18.582;2022-12-18T05:07:14;102435.20;;;-3.30
69435;BMP180;56625;54.322;18.582;2022-12-18T05:09:42;102439.60;;;-3.30
69435;BMP180;56625;54.322;18.582;2022-12-18T05:12:10;102438.00;;;-3.30
69435;BMP180;56625;54.322;18.582;2022-12-18T05:14:38;102445.60;;;-3.30
69435;BMP180;56625;54.322;18.582;2022-12-18T05:17:05;102449.20;;;-3.30
69435;BMP180;56625;54.322;18.582;2022-12-18T05:19:33;102456.00;;;-3.30
69435;BMP180;56625;54.322;18.582;2022-12-18T05:22:01;102455.60;;;-3.30
69435;BMP180;56625;54.322;18.582;2022-12-18T05:24:29;102456.80;;;-3.30
69435;BMP180;56625;54.322;18.582;2022-12-18T05:26:57;102461.20;;;-3.30
69435;BMP180;56625;54.322;18.582;2022-12-18T05:29:25;102466.20;;;-3.30
69435;BMP180;56625;54.322;18.582;2022-12-18T05:31:53;102474.00;;;-3.30
69435;BMP180;56625;54.322;18.582;2022-12-18T05:34:21;102476.60;;;-3.30
69435;BMP180;56625;54.322;18.582;2022-12-18T05:36:49;102476.00;;;-3.30
69435;BMP180;56625;54.322;18.582;2022-12-18T05:39:16;102477.00;;;-3.32
69435;BMP180;56625;54.322;18.582;2022-12-18T05:41:44;102479.80;;;-3.30
69435;BMP180;56625;54.322;18.582;2022-12-18T05:44:13;102479.40;;;-3.30
69435;BMP180;56625;54.322;18.582;2022-12-18T05:46:41;102483.00;;;-3.30
69435;BMP180;56625;54.322;18.582;2022-12-18T05:49:09;102492.40;;;-3.30
69435;BMP180;56625;54.322;18.582;2022-12-18T05:51:37;102495.20;;;-3.30
69435;BMP180;56625;54.322;18.582;2022-12-18T05:54:05;102495.60;;;-3.32
69435;BMP180;56625;54.322;18.582;2022-12-18T05:56:33;102499.60;;;-3.32
69435;BMP180;56625;54.322;18.582;2022-12-18T05:59:01;102501.00;;;-3.38
69435;BMP180;56625;54.322;18.582;2022-12-18T06:01:29;102495.80;;;-3.40
69435;BMP180;56625;54.322;18.582;2022-12-18T06:03:57;102500.20;;;-3.40
69435;BMP180;56625;54.322;18.582;2022-12-18T06:06:27;102500.20;;;-3.40
69435;BMP180;56625;54.322;18.582;2022-12-18T06:08:56;102508.60;;;-3.40
69435;BMP180;56625;54.322;18.582;2022-12-18T06:11:26;102513.40;;;-3.40
69435;BMP180;56625;54.322;18.582;2022-12-18T06:13:55;102512.20;;;-3.40
69435;BMP180;56625;54.322;18.582;2022-12-18T06:16:28;102519.00;;;-3.40
69435;BMP180;56625;54.322;18.582;2022-12-18T06:18:59;102513.80;;;-3.40
69435;BMP180;56625;54.322;18.582;2022-12-18T06:21:29;102518.60;;;-3.40
69435;BMP180;56625;54.322;18.582;2022-12-18T06:23:59;102523.00;;;-3.40
69435;BMP180;56625;54.322;18.582;2022-12-18T06:26:27;102524.60;;;-3.40
69435;BMP180;56625;54.322;18.582;2022-12-18T06:28:55;102524.80;;;-3.50
69435;BMP180;56625;54.322;18.582;2022-12-18T06:31:25;102523.40;;;-3.50
69435;BMP180;56625;54.322;18.582;2022-12-18T06:33:53;102525.00;;;-3.50
69435;BMP180;56625;54.322;18.582;2022-12-18T06:36:21;102536.00;;;-3.50
69435;BMP180;56625;54.322;18.582;2022-12-18T06:38:49;102540.20;;;-3.50
69435;BMP180;56625;54.322;18.582;2022-12-18T06:41:20;102542.60;;;-3.50
69435;BMP180;56625;54.322;18.582;2022-12-18T06:43:49;102550.80;;;-3.50
69435;BMP180;56625;54.322;18.582;2022-12-18T06:46:16;102560.40;;;-3.50
69435;BMP180;56625;54.322;18.582;2022-12-18T06:48:49;102563.20;;;-3.52
69435;BMP180;56625;54.322;18.582;2022-12-18T06:51:20;102563.80;;;-3.50
69435;BMP180;56625;54.322;18.582;2022-12-18T06:53:48;102559.40;;;-3.50
69435;BMP180;56625;54.322;18.582;2022-12-18T06:56:16;102560.60;;;-3.52
69435;BMP180;56625;54.322;18.582;2022-12-18T06:58:45;102560.20;;;-3.50
69435;BMP180;56625;54.322;18.582;2022-12-18T07:01:13;102564.80;;;-3.50
69435;BMP180;56625;54.322;18.582;2022-12-18T07:03:42;102574.00;;;-3.52
69435;BMP180;56625;54.322;18.582;2022-12-18T07:06:20;102572.00;;;-3.50
69435;BMP180;56625;54.322;18.582;2022-12-18T07:08:49;102577.20;;;-3.50
69435;BMP180;56625;54.322;18.582;2022-12-18T07:11:19;102577.00;;;-3.58
69435;BMP180;56625;54.322;18.582;2022-12-18T07:13:47;102576.60;;;-3.60
69435;BMP180;56625;54.322;18.582;2022-12-18T07:16:20;102589.20;;;-3.60
69435;BMP180;56625;54.322;18.582;2022-12-18T07:18:54;102597.20;;;-3.52
69435;BMP180;56625;54.322;18.582;2022-12-18T07:21:24;102603.40;;;-3.50
69435;BMP180;56625;54.322;18.582;2022-12-18T07:23:53;102606.60;;;-3.50
69435;BMP180;56625;54.322;18.582;2022-12-18T07:26:22;102606.00;;;-3.50
69435;BMP180;56625;54.322;18.582;2022-12-18T07:28:56;102606.00;;;-3.50
69435;BMP180;56625;54.322;18.582;2022-12-18T07:31:26;102598.40;;;-3.40
69435;BMP180;56625;54.322;18.582;2022-12-18T07:33:54;102607.20;;;-3.40
69435;BMP180;56625;54.322;18.582;2022-12-18T07:36:23;102605.00;;;-3.30
69435;BMP180;56625;54.322;18.582;2022-12-18T07:38:51;102604.40;;;-3.26
69435;BMP180;56625;54.322;18.582;2022-12-18T07:41:22;102607.40;;;-3.20
69435;BMP180;56625;54.322;18.582;2022-12-18T07:43:50;102614.60;;;-3.10
69435;BMP180;56625;54.322;18.582;2022-12-18T07:46:19;102618.60;;;-3.00
69435;BMP180;56625;54.322;18.582;2022-12-18T07:48:47;102615.80;;;-3.00
69435;BMP180;56625;54.322;18.582;2022-12-18T07:51:18;102626.40;;;-2.90
69435;BMP180;56625;54.322;18.582;2022-12-18T07:53:46;102628.80;;;-2.80
69435;BMP180;56625;54.322;18.582;2022-12-18T07:56:20;102628.00;;;-2.74
69435;BMP180;56625;54.322;18.582;2022-12-18T07:58:59;102628.00;;;-2.68
69435;BMP180;56625;54.322;18.582;2022-12-18T08:01:27;102619.60;;;-2.60
69435;BMP180;56625;54.322;18.582;2022-12-18T08:03:57;102612.00;;;-2.48
69435;BMP180;56625;54.322;18.582;2022-12-18T08:06:25;102618.60;;;-2.36
69435;BMP180;56625;54.322;18.582;2022-12-18T08:08:55;102622.20;;;-2.30
69435;BMP180;56625;54.322;18.582;2022-12-18T08:11:27;102622.00;;;-2.20
69435;BMP180;56625;54.322;18.582;2022-12-18T08:13:56;102622.60;;;-2.10
69435;BMP180;56625;54.322;18.582;2022-12-18T08:16:24;102625.60;;;-2.02
69435;BMP180;56625;54.322;18.582;2022-12-18T08:18:53;102632.40;;;-2.00
69435;BMP180;56625;54.322;18.582;2022-12-18T08:21:29;102633.20;;;-2.00
69435;BMP180;56625;54.322;18.582;2022-12-18T08:24:00;102633.00;;;-2.00
69435;BMP180;56625;54.322;18.582;2022-12-18T08:26:30;102633.20;;;-1.90
69435;BMP180;56625;54.322;18.582;2022-12-18T08:29:00;102633.20;;;-1.82
69435;BMP180;56625;54.322;18.582;2022-12-18T08:31:30;102634.20;;;-1.80
69435;BMP180;56625;54.322;18.582;2022-12-18T08:33:58;102634.80;;;-1.70
69435;BMP180;56625;54.322;18.582;2022-12-18T08:36:26;102638.80;;;-1.66
69435;BMP180;56625;54.322;18.582;2022-12-18T08:38:54;102641.20;;;-1.60
69435;BMP180;56625;54.322;18.582;2022-12-18T08:41:22;102636.20;;;-1.52
69435;BMP180;56625;54.322;18.582;2022-12-18T08:43:50;102630.40;;;-1.50
69435;BMP180;56625;54.322;18.582;2022-12-18T08:46:40;102626.00;;;-1.42
69435;BMP180;56625;54.322;18.582;2022-12-18T08:49:10;102625.40;;;-1.40
69435;BMP180;56625;54.322;18.582;2022-12-18T08:51:39;102621.60;;;-1.38
69435;BMP180;56625;54.322;18.582;2022-12-18T08:54:10;102625.60;;;-1.30
69435;BMP180;56625;54.322;18.582;2022-12-18T08:56:39;102627.00;;;-1.20
69435;BMP180;56625;54.322;18.582;2022-12-18T08:59:08;102627.80;;;-1.10
69435;BMP180;56625;54.322;18.582;2022-12-18T09:01:46;102630.40;;;-1.10
69435;BMP180;56625;54.322;18.582;2022-12-18T09:04:15;102627.80;;;-1.00
69435;BMP180;56625;54.322;18.582;2022-12-18T09:06:43;102634.40;;;-1.00
69435;BMP180;56625;54.322;18.582;2022-12-18T09:09:11;102633.80;;;-1.00
69435;BMP180;56625;54.322;18.582;2022-12-18T09:11:39;102637.40;;;-0.90
69435;BMP180;56625;54.322;18.582;2022-12-18T09:14:09;102637.80;;;-0.90
69435;BMP180;56625;54.322;18.582;2022-12-18T09:16:37;102643.00;;;-0.82
69435;BMP180;56625;54.322;18.582;2022-12-18T09:19:05;102640.80;;;-0.80
69435;BMP180;56625;54.322;18.582;2022-12-18T09:21:37;102633.80;;;-0.70
69435;BMP180;56625;54.322;18.582;2022-12-18T09:24:13;102640.40;;;-0.64
69435;BMP180;56625;54.322;18.582;2022-12-18T09:26:41;102636.00;;;-0.60
69435;BMP180;56625;54.322;18.582;2022-12-18T09:29:15;102634.20;;;-0.40
69435;BMP180;56625;54.322;18.582;2022-12-18T09:31:46;102647.00;;;-0.20
69435;BMP180;56625;54.322;18.582;2022-12-18T09:34:15;102647.20;;;-0.10
69435;BMP180;56625;54.322;18.582;2022-12-18T09:36:44;102644.40;;;0.00
69435;BMP180;56625;54.322;18.582;2022-12-18T09:39:11;102638.40;;;0.00
69435;BMP180;56625;54.322;18.582;2022-12-18T09:41:45;102632.40;;;0.22
69435;BMP180;56625;54.322;18.582;2022-12-18T09:49:42;102639.80;;;0.60
69435;BMP180;56625;54.322;18.582;2022-12-18T09:52:35;102642.00;;;0.50
69435;BMP180;56625;54.322;18.582;2022-12-18T09:58:24;102646.60;;;0.20
69435;BMP180;56625;54.322;18.582;2022-12-18T10:00:47;102652.20;;;0.30
69435;BMP180;56625;54.322;18.582;2022-12-18T10:03:15;102641.40;;;0.32
69435;BMP180;56625;54.322;18.582;2022-12-18T10:06:18;102639.00;;;0.42
69435;BMP180;56625;54.322;18.582;2022-12-18T10:11:51;102634.40;;;0.30
69435;BMP180;56625;54.322;18.582;2022-12-18T10:14:47;102635.40;;;0.30
69435;BMP180;56625;54.322;18.582;2022-12-18T10:20:34;102634.00;;;0.40
69435;BMP180;56625;54.322;18.582;2022-12-18T10:26:34;102645.20;;;0.60
69435;BMP180;56625;54.322;18.582;2022-12-18T10:29:10;102640.60;;;1.14
69435;BMP180;56625;54.322;18.582;2022-12-18T10:31:40;102644.60;;;1.66
69435;BMP180;56625;54.322;18.582;2022-12-18T10:34:14;102640.00;;;1.84
69435;BMP180;56625;54.322;18.582;2022-12-18T10:36:42;102640.40;;;2.14
69435;BMP180;56625;54.322;18.582;2022-12-18T10:39:24;102636.20;;;2.00
69435;BMP180;56625;54.322;18.582;2022-12-18T10:42:18;102635.60;;;1.62
69435;BMP180;56625;54.322;18.582;2022-12-18T10:45:03;102637.80;;;1.18
69435;BMP180;56625;54.322;18.582;2022-12-18T10:47:34;102640.00;;;1.00
69435;BMP180;56625;54.322;18.582;2022-12-18T10:50:03;102645.20;;;0.90
69435;BMP180;56625;54.322;18.582;2022-12-18T10:52:31;102654.40;;;0.80
69435;BMP180;56625;54.322;18.582;2022-12-18T10:55:03;102654.60;;;0.76
69435;BMP180;56625;54.322;18.582;2022-12-18T10:57:39;102648.40;;;0.70
69435;BMP180;56625;54.322;18.582;2022-12-18T11:00:29;102637.60;;;0.86
69435;BMP180;56625;54.322;18.582;2022-12-18T11:02:57;102627.80;;;1.50
69435;BMP180;56625;54.322;18.582;2022-12-18T11:05:35;102626.60;;;1.98
69435;BMP180;56625;54.322;18.582;2022-12-18T11:08:04;102626.20;;;2.38
69435;BMP180;56625;54.322;18.582;2022-12-18T11:10:37;102632.60;;;2.40
69435;BMP180;56625;54.322;18.582;2022-12-18T11:13:31;102643.20;;;2.16
69435;BMP180;56625;54.322;18.582;2022-12-18T11:16:00;102640.20;;;1.80
69435;BMP180;56625;54.322;18.582;2022-12-18T11:18:37;102640.00;;;2.10
69435;BMP180;56625;54.322;18.582;2022-12-18T11:21:11;102631.80;;;2.42
69435;BMP180;56625;54.322;18.582;2022-12-18T11:23:52;102647.00;;;2.44
69435;BMP180;56625;54.322;18.582;2022-12-18T11:26:33;102653.80;;;2.10
69435;BMP180;56625;54.322;18.582;2022-12-18T11:29:16;102649.60;;;1.80
69435;BMP180;56625;54.322;18.582;2022-12-18T11:31:46;102650.00;;;1.60
69435;BMP180;56625;54.322;18.582;2022-12-18T11:34:31;102651.60;;;1.42
69435;BMP180;56625;54.322;18.582;2022-12-18T11:37:03;102648.60;;;1.28
69435;BMP180;56625;54.322;18.582;2022-12-18T11:39:51;102650.80;;;1.14
69435;BMP180;56625;54.322;18.582;2022-12-18T11:42:54;102657.40;;;1.00
69435;BMP180;56625;54.322;18.582;2022-12-18T11:45:34;102664.80;;;0.90
69435;BMP180;56625;54.322;18.582;2022-12-18T11:48:32;102671.00;;;0.82
69435;BMP180;56625;54.322;18.582;2022-12-18T11:51:05;102680.80;;;0.70
69435;BMP180;56625;54.322;18.582;2022-12-18T11:53:38;102681.80;;;0.70
69435;BMP180;56625;54.322;18.582;2022-12-18T11:59:28;102702.00;;;0.70
69435;BMP180;56625;54.322;18.582;2022-12-18T12:04:58;102706.00;;;0.70
69435;BMP180;56625;54.322;18.582;2022-12-18T12:11:15;102701.40;;;0.82
69435;BMP180;56625;54.322;18.582;2022-12-18T12:19:50;102704.20;;;1.26
69435;BMP180;56625;54.322;18.582;2022-12-18T12:22:41;102705.00;;;1.20
69435;BMP180;56625;54.322;18.582;2022-12-18T12:25:45;102699.40;;;1.22
69435;BMP180;56625;54.322;18.582;2022-12-18T12:28:44;102698.20;;;1.20
69435;BMP180;56625;54.322;18.582;2022-12-18T12:34:38;102690.20;;;1.20
69435;BMP180;56625;54.322;18.582;2022-12-18T12:40:06;102688.60;;;0.90
69435;BMP180;56625;54.322;18.582;2022-12-18T12:43:00;102688.60;;;0.80
69435;BMP180;56625;54.322;18.582;2022-12-18T12:46:00;102695.80;;;0.66
69435;BMP180;56625;54.322;18.582;2022-12-18T12:51:12;102693.60;;;0.50
69435;BMP180;56625;54.322;18.582;2022-12-18T12:53:42;102699.00;;;0.40
69435;BMP180;56625;54.322;18.582;2022-12-18T12:56:15;102700.60;;;0.40
69435;BMP180;56625;54.322;18.582;2022-12-18T12:59:02;102700.40;;;0.36
69435;BMP180;56625;54.322;18.582;2022-12-18T13:02:02;102695.00;;;0.30
69435;BMP180;56625;54.322;18.582;2022-12-18T13:04:48;102698.20;;;0.20
69435;BMP180;56625;54.322;18.582;2022-12-18T13:12:58;102711.40;;;-0.02
69435;BMP180;56625;54.322;18.582;2022-12-18T13:20:51;102714.40;;;-0.26
69435;BMP180;56625;54.322;18.582;2022-12-18T13:23:39;102702.00;;;-0.32
69435;BMP180;56625;54.322;18.582;2022-12-18T13:28:57;102720.60;;;-0.50
69435;BMP180;56625;54.322;18.582;2022-12-18T13:34:25;102718.00;;;-0.62
69435;BMP180;56625;54.322;18.582;2022-12-18T13:39:59;102727.60;;;-0.70
69435;BMP180;56625;54.322;18.582;2022-12-18T13:42:40;102723.80;;;-0.80
69435;BMP180;56625;54.322;18.582;2022-12-18T13:45:44;102726.40;;;-0.88
69435;BMP180;56625;54.322;18.582;2022-12-18T13:48:25;102735.40;;;-0.90
69435;BMP180;56625;54.322;18.582;2022-12-18T13:51:01;102738.60;;;-1.00
69435;BMP180;56625;54.322;18.582;2022-12-18T13:56:05;102741.00;;;-1.10
69435;BMP180;56625;54.322;18.582;2022-12-18T13:58:34;102735.80;;;-1.18
69435;BMP180;56625;54.322;18.582;2022-12-18T14:01:02;102738.80;;;-1.20
69435;BMP180;56625;54.322;18.582;2022-12-18T14:03:32;102744.00;;;-1.30
69435;BMP180;56625;54.322;18.582;2022-12-18T14:06:05;102738.40;;;-1.30
69435;BMP180;56625;54.322;18.582;2022-12-18T14:08:40;102732.00;;;-1.40
69435;BMP180;56625;54.322;18.582;2022-12-18T14:11:22;102730.40;;;-1.40
69435;BMP180;56625;54.322;18.582;2022-12-18T14:13:53;102725.60;;;-1.50
69435;BMP180;56625;54.322;18.582;2022-12-18T14:16:22;102737.40;;;-1.60
69435;BMP180;56625;54.322;18.582;2022-12-18T14:18:57;102740.00;;;-1.60
69435;BMP180;56625;54.322;18.582;2022-12-18T14:21:47;102742.00;;;-1.70
69435;BMP180;56625;54.322;18.582;2022-12-18T14:24:20;102741.80;;;-1.70
69435;BMP180;56625;54.322;18.582;2022-12-18T14:26:50;102748.00;;;-1.80
69435;BMP180;56625;54.322;18.582;2022-12-18T14:29:45;102749.00;;;-1.80
69435;BMP180;56625;54.322;18.582;2022-12-18T14:32:23;102743.40;;;-1.80
69435;BMP180;56625;54.322;18.582;2022-12-18T14:34:53;102739.60;;;-1.80
69435;BMP180;56625;54.322;18.582;2022-12-18T14:37:25;102737.80;;;-1.80
69435;BMP180;56625;54.322;18.582;2022-12-18T14:39:55;102739.60;;;-1.90
69435;BMP180;56625;54.322;18.582;2022-12-18T14:42:26;102738.40;;;-1.90
69435;BMP180;56625;54.322;18.582;2022-12-18T14:45:43;102739.20;;;-2.00
69435;BMP180;56625;54.322;18.582;2022-12-18T14:48:41;102740.60;;;-2.00
69435;BMP180;56625;54.322;18.582;2022-12-18T14:51:20;102740.00;;;-2.10
69435;BMP180;56625;54.322;18.582;2022-12-18T14:54:15;102750.60;;;-2.20
69435;BMP180;56625;54.322;18.582;2022-12-18T14:57:00;102750.60;;;-2.24
69435;BMP180;56625;54.322;18.582;2022-12-18T14:59:30;102762.20;;;-2.30
69435;BMP180;56625;54.322;18.582;2022-12-18T15:02:10;102758.80;;;-2.36
69435;BMP180;56625;54.322;18.582;2022-12-18T15:04:43;102768.80;;;-2.40
69435;BMP180;56625;54.322;18.582;2022-12-18T15:07:23;102773.20;;;-2.50
69435;BMP180;56625;54.322;18.582;2022-12-18T15:10:13;102779.60;;;-2.50
69435;BMP180;56625;54.322;18.582;2022-12-18T15:13:09;102793.00;;;-2.60
69435;BMP180;56625;54.322;18.582;2022-12-18T15:15:49;102790.00;;;-2.70
69435;BMP180;56625;54.322;18.582;2022-12-18T15:18:30;102785.40;;;-2.80
69435;BMP180;56625;54.322;18.582;2022-12-18T15:21:08;102786.60;;;-2.80
69435;BMP180;56625;54.322;18.582;2022-12-18T15:26:14;102779.80;;;-2.90
69435;BMP180;56625;54.322;18.582;2022-12-18T15:28:56;102773.80;;;-2.98
69435;BMP180;56625;54.322;18.582;2022-12-18T15:31:31;102780.40;;;-3.00
69435;BMP180;56625;54.322;18.582;2022-12-18T15:34:12;102780.80;;;-3.00
69435;BMP180;56625;54.322;18.582;2022-12-18T15:36:41;102787.80;;;-3.10
69435;BMP180;56625;54.322;18.582;2022-12-18T15:39:12;102794.80;;;-3.10
69435;BMP180;56625;54.322;18.582;2022-12-18T15:41:40;102789.40;;;-3.22
69435;BMP180;56625;54.322;18.582;2022-12-18T15:44:28;102789.60;;;-3.30
69435;BMP180;56625;54.322;18.582;2022-12-18T15:46:58;102791.40;;;-3.40
69435;BMP180;56625;54.322;18.582;2022-12-18T15:49:26;102800.20;;;-3.48
69435;BMP180;56625;54.322;18.582;2022-12-18T15:51:58;102797.20;;;-3.50
69435;BMP180;56625;54.322;18.582;2022-12-18T15:54:27;102797.40;;;-3.60
69435;BMP180;56625;54.322;18.582;2022-12-18T15:57:13;102795.40;;;-3.60
69435;BMP180;56625;54.322;18.582;2022-12-18T15:59:53;102793.20;;;-3.70